Time;durP1;ratioP1;P1;durP2;ratioP2;P2;SDS_P1;SDS_P2;PMS_P1;PMS_P2;Temp;Humidity;BMP_temperature;BMP_pressure;BME280_temperature;BME280_humidity;BME280_pressure;Samples;Min_cycle;Max_cycle;Signal;HPM_P1;HPM_P2
2023/07/10 00:01:41;;;;;;;5.33;4.40;;;25.30;97.70;;;;;;5009512;28;20486;-61
2023/07/10 00:04:15;;;;;;;4.07;3.73;;;25.30;97.60;;;;;;5014230;28;20459;-59
2023/07/10 00:06:42;;;;;;;5.97;4.00;;;25.30;97.60;;;;;;4998027;28;21047;-57
2023/07/10 00:09:09;;;;;;;3.93;3.63;;;25.30;97.60;;;;;;4999639;28;20467;-58
2023/07/10 00:11:36;;;;;;;5.37;4.37;;;25.30;97.80;;;;;;5005128;28;20474;-59
2023/07/10 00:14:06;;;;;;;4.50;4.10;;;25.20;97.60;;;;;;5004849;28;20468;-59
2023/07/10 00:16:33;;;;;;;5.37;4.93;;;25.20;97.70;;;;;;4997467;28;20481;-61
2023/07/10 00:19:01;;;;;;;4.80;4.40;;;25.20;97.70;;;;;;5003450;28;20470;-57
2023/07/10 00:21:27;;;;;;;4.00;3.50;;;25.20;97.80;;;;;;5011064;28;20482;-57
2023/07/10 00:23:54;;;;;;;4.10;3.60;;;25.20;97.80;;;;;;5010869;28;20593;-59
2023/07/10 00:26:23;;;;;;;7.10;5.00;;;25.20;97.80;;;;;;5006764;28;20962;-58
2023/07/10 00:28:52;;;;;;;5.53;5.00;;;25.20;97.80;;;;;;5000945;28;20684;-56
2023/07/10 00:31:19;;;;;;;4.40;4.00;;;25.20;97.90;;;;;;5001848;28;20951;-56
2023/07/10 00:33:47;;;;;;;4.43;4.10;;;25.20;98.30;;;;;;5011404;28;20465;-60
2023/07/10 00:36:27;;;;;;;4.10;3.73;;;25.20;97.90;;;;;;5016149;28;20586;-61
2023/07/10 00:38:54;;;;;;;4.13;3.43;;;25.20;98.00;;;;;;5010596;28;21072;-56
2023/07/10 00:41:22;;;;;;;4.53;4.20;;;25.20;98.00;;;;;;5008938;28;20843;-55
2023/07/10 00:43:53;;;;;;;4.57;4.20;;;25.20;98.00;;;;;;5002574;28;20470;-59
2023/07/10 00:46:32;;;;;;;4.43;4.03;;;25.20;98.00;;;;;;5003220;28;20491;-62
2023/07/10 00:49:05;;;;;;;4.37;3.97;;;25.20;98.10;;;;;;5006900;28;20462;-57
2023/07/10 00:51:39;;;;;;;4.63;4.17;;;25.20;98.20;;;;;;5010739;28;20470;-53
2023/07/10 00:54:14;;;;;;;4.80;4.40;;;25.20;98.30;;;;;;5011820;28;20466;-61
2023/07/10 00:56:45;;;;;;;4.73;4.33;;;25.20;98.30;;;;;;5012505;28;20474;-58
2023/07/10 00:59:22;;;;;;;4.37;3.97;;;25.20;98.30;;;;;;5011357;28;20878;-54
2023/07/10 01:02:21;;;;;;;4.37;3.97;;;25.20;98.40;;;;;;5014000;28;20474;-57
2023/07/10 01:04:53;;;;;;;4.70;4.30;;;25.20;98.30;;;;;;5012275;28;20455;-61
2023/07/10 01:07:23;;;;;;;4.70;4.30;;;25.10;98.40;;;;;;5012758;28;20483;-62
2023/07/10 01:09:56;;;;;;;6.00;4.00;;;25.20;98.40;;;;;;5003204;28;20466;-58
2023/07/10 01:12:23;;;;;;;3.90;3.60;;;25.20;98.40;;;;;;5002985;28;20466;-61
2023/07/10 01:14:49;;;;;;;4.90;4.50;;;25.10;98.40;;;;;;4999322;28;20462;-58
2023/07/10 01:17:16;;;;;;;5.67;4.00;;;25.10;98.40;;;;;;5000376;28;20467;-56
2023/07/10 01:19:45;;;;;;;5.30;4.80;;;25.10;98.40;;;;;;4994548;28;20462;-61
2023/07/10 01:22:14;;;;;;;4.90;4.40;;;25.10;98.50;;;;;;4998761;28;20483;-61
2023/07/10 01:24:42;;;;;;;5.87;4.30;;;25.10;98.50;;;;;;4996426;28;20463;-52
2023/07/10 01:27:12;;;;;;;4.50;4.10;;;25.10;98.50;;;;;;4996172;28;20456;-56
2023/07/10 01:29:43;;;;;;;3.80;3.50;;;25.10;98.60;;;;;;4997395;28;20478;-57
2023/07/10 01:32:12;;;;;;;4.80;4.40;;;25.10;98.80;;;;;;4999305;28;20550;-61
2023/07/10 01:34:48;;;;;;;4.83;4.43;;;25.10;98.70;;;;;;4997911;28;20474;-55
2023/07/10 01:37:16;;;;;;;4.33;3.93;;;25.10;98.70;;;;;;4997109;28;20460;-59
2023/07/10 01:39:46;;;;;;;4.17;3.73;;;25.10;98.70;;;;;;4995472;28;20461;-58
2023/07/10 01:42:13;;;;;;;4.00;3.70;;;25.10;98.70;;;;;;4997803;28;20530;-60
2023/07/10 01:44:41;;;;;;;5.03;4.43;;;25.10;98.70;;;;;;4994012;28;20464;-58
2023/07/10 01:47:10;;;;;;;4.20;3.90;;;25.10;98.70;;;;;;4996465;28;21086;-62
2023/07/10 01:49:42;;;;;;;4.80;3.97;;;25.10;98.70;;;;;;4996195;28;20466;-56
2023/07/10 01:52:11;;;;;;;3.97;3.60;;;25.10;98.80;;;;;;4996775;28;20516;-56
2023/07/10 01:54:39;;;;;;;3.70;3.40;;;25.10;98.80;;;;;;5000595;28;20467;-61
2023/07/10 01:57:07;;;;;;;4.13;3.67;;;25.10;98.90;;;;;;4997179;28;20479;-62
2023/07/10 01:59:34;;;;;;;4.67;4.27;;;25.10;98.90;;;;;;4994772;28;20468;-59
2023/07/10 02:02:02;;;;;;;3.60;3.30;;;25.10;99.00;;;;;;5002612;28;20986;-61
2023/07/10 02:04:29;;;;;;;4.00;3.70;;;25.10;98.90;;;;;;5000595;28;20467;-59
2023/07/10 02:06:56;;;;;;;4.87;4.47;;;25.10;99.10;;;;;;4992685;28;20459;-56
2023/07/10 02:09:23;;;;;;;4.93;4.33;;;25.10;98.90;;;;;;4993770;28;20459;-57
2023/07/10 02:11:52;;;;;;;4.93;4.43;;;25.10;98.90;;;;;;4993245;28;20459;-57
2023/07/10 02:14:18;;;;;;;4.33;3.93;;;25.10;99.00;;;;;;4991257;28;20976;-60
2023/07/10 02:16:45;;;;;;;4.67;4.27;;;25.10;99.10;;;;;;4996852;28;20465;-57
2023/07/10 02:19:12;;;;;;;4.17;3.80;;;25.10;99.00;;;;;;4993650;28;20702;-57
2023/07/10 02:21:39;;;;;;;4.93;4.43;;;25.10;99.10;;;;;;4993592;28;20866;-61
2023/07/10 02:24:07;;;;;;;4.20;3.90;;;25.10;99.00;;;;;;4994510;28;20464;-62
2023/07/10 02:26:34;;;;;;;3.83;3.53;;;25.10;99.00;;;;;;4995434;28;20534;-57
2023/07/10 02:29:03;;;;;;;4.63;4.20;;;25.10;99.10;;;;;;5000077;28;20946;-60
2023/07/10 02:31:30;;;;;;;4.67;4.27;;;25.10;99.10;;;;;;5000277;28;20463;-58
2023/07/10 02:33:57;;;;;;;4.97;4.57;;;25.10;99.10;;;;;;5001019;28;20470;-57
2023/07/10 02:36:24;;;;;;;4.23;3.80;;;25.10;99.10;;;;;;4999497;28;20476;-59
2023/07/10 02:38:51;;;;;;;4.10;3.80;;;25.10;99.20;;;;;;5000927;28;20467;-58
2023/07/10 02:41:18;;;;;;;3.90;3.60;;;25.10;99.10;;;;;;5001242;28;20537;-57
2023/07/10 02:43:45;;;;;;;4.37;3.97;;;25.10;99.10;;;;;;5000168;28;20471;-56
2023/07/10 02:46:13;;;;;;;4.97;4.57;;;25.10;99.30;;;;;;5001654;28;20463;-61
2023/07/10 02:48:40;;;;;;;4.20;3.80;;;25.10;99.20;;;;;;5000332;28;20553;-53
2023/07/10 02:51:06;;;;;;;4.23;3.93;;;25.00;99.10;;;;;;5000955;28;20476;-56
2023/07/10 02:53:33;;;;;;;5.00;3.73;;;25.10;99.10;;;;;;5001226;28;20980;-62
2023/07/10 02:56:00;;;;;;;4.10;3.70;;;25.10;99.20;;;;;;4998136;28;20478;-60
2023/07/10 02:58:27;;;;;;;3.80;3.50;;;25.00;99.20;;;;;;4998687;28;20956;-59
2023/07/10 03:00:57;;;;;;;4.37;4.00;;;25.00;99.30;;;;;;5004773;28;21015;-60
2023/07/10 03:03:25;;;;;;;3.97;3.67;;;25.00;99.30;;;;;;4996241;28;20467;-57
2023/07/10 03:05:56;;;;;;;4.43;4.03;;;25.00;99.20;;;;;;4995154;28;21069;-60
2023/07/10 03:08:23;;;;;;;4.53;4.13;;;25.00;99.50;;;;;;4996478;28;20460;-58
2023/07/10 03:10:58;;;;;;;4.17;3.87;;;25.00;99.30;;;;;;4995695;28;20476;-55
2023/07/10 03:13:24;;;;;;;4.07;3.70;;;25.00;99.30;;;;;;4993790;28;20467;-58
2023/07/10 03:15:58;;;;;;;4.83;4.40;;;25.00;99.20;;;;;;4994728;28;20986;-62
2023/07/10 03:18:27;;;;;;;4.97;4.57;;;25.00;99.20;;;;;;4999763;28;20763;-61
2023/07/10 03:20:53;;;;;;;3.87;3.60;;;25.00;99.30;;;;;;4997335;28;20490;-60
2023/07/10 03:23:20;;;;;;;4.13;3.83;;;25.00;99.30;;;;;;4995740;28;21063;-56
2023/07/10 03:25:47;;;;;;;4.07;3.67;;;25.00;99.30;;;;;;4998124;28;20470;-56
2023/07/10 03:28:15;;;;;;;3.93;3.60;;;25.00;99.40;;;;;;4997977;28;20496;-60
2023/07/10 03:30:41;;;;;;;4.83;4.43;;;25.00;99.30;;;;;;4998652;28;21149;-57
2023/07/10 03:33:09;;;;;;;4.20;3.90;;;25.00;99.30;;;;;;5007665;28;20454;-53
2023/07/10 03:35:37;;;;;;;4.20;3.63;;;25.00;99.40;;;;;;5000088;28;20506;-57
2023/07/10 03:38:04;;;;;;;4.83;3.43;;;25.00;99.50;;;;;;5004240;28;20462;-57
2023/07/10 03:40:31;;;;;;;4.10;3.80;;;25.00;99.30;;;;;;5011974;28;20835;-61
2023/07/10 03:42:58;;;;;;;4.50;4.20;;;25.00;99.20;;;;;;5010754;28;20495;-59
2023/07/10 03:45:24;;;;;;;3.83;3.57;;;25.00;99.40;;;;;;5003668;28;20947;-57
2023/07/10 03:47:51;;;;;;;3.80;3.50;;;25.00;99.70;;;;;;5001026;28;21032;-55
2023/07/10 03:50:18;;;;;;;3.77;3.47;;;25.00;99.40;;;;;;5002126;28;20487;-62
2023/07/10 03:52:46;;;;;;;4.60;4.23;;;25.00;99.40;;;;;;5007153;28;20459;-59
2023/07/10 03:55:13;;;;;;;4.00;3.70;;;25.00;99.40;;;;;;4997805;28;20472;-60
2023/07/10 03:57:40;;;;;;;4.33;4.03;;;25.00;99.40;;;;;;5003455;28;20477;-55
2023/07/10 04:00:07;;;;;;;4.10;3.80;;;25.00;99.30;;;;;;5005299;28;20471;-56
2023/07/10 04:02:34;;;;;;;4.40;4.00;;;25.00;99.40;;;;;;5008679;28;20866;-59
2023/07/10 04:05:01;;;;;;;3.70;3.40;;;25.00;99.50;;;;;;5007085;28;20463;-54
2023/07/10 04:07:27;;;;;;;4.33;3.93;;;25.00;99.30;;;;;;5014785;28;20463;-62
2023/07/10 04:09:55;;;;;;;4.40;4.00;;;25.00;99.40;;;;;;5008351;28;20460;-59
2023/07/10 04:12:22;;;;;;;4.33;4.03;;;25.00;99.40;;;;;;5013208;28;20879;-56
2023/07/10 04:14:49;;;;;;;4.80;4.03;;;25.00;99.60;;;;;;5015064;28;20470;-59
2023/07/10 04:17:15;;;;;;;4.37;3.97;;;25.00;99.50;;;;;;5009129;28;20468;-62
2023/07/10 04:19:42;;;;;;;3.80;3.50;;;25.00;99.50;;;;;;5010639;28;20455;-62
2023/07/10 04:22:09;;;;;;;4.43;4.03;;;25.00;99.80;;;;;;5012799;28;20474;-61
2023/07/10 04:24:36;;;;;;;4.30;3.90;;;25.00;99.50;;;;;;5011364;28;20467;-61
2023/07/10 04:27:04;;;;;;;3.90;3.60;;;25.00;99.60;;;;;;5005551;28;20460;-54
2023/07/10 04:29:31;;;;;;;4.47;4.17;;;25.00;99.60;;;;;;5001556;28;20460;-60
2023/07/10 04:31:58;;;;;;;4.00;3.70;;;25.00;99.70;;;;;;5004818;28;20959;-60
2023/07/10 04:34:24;;;;;;;4.30;3.90;;;25.00;99.60;;;;;;5005471;28;20462;-55
2023/07/10 04:36:51;;;;;;;4.63;4.23;;;25.00;99.60;;;;;;5003713;28;20459;-55
2023/07/10 04:39:18;;;;;;;3.97;3.60;;;24.90;99.50;;;;;;5002979;28;20467;-57
2023/07/10 04:41:44;;;;;;;3.87;3.50;;;24.90;99.60;;;;;;5002292;28;20496;-57
2023/07/10 04:44:12;;;;;;;4.20;3.90;;;24.90;99.60;;;;;;5007579;28;20476;-58
2023/07/10 04:46:41;;;;;;;4.07;3.77;;;24.90;99.60;;;;;;5003622;28;20482;-57
2023/07/10 04:49:07;;;;;;;3.87;3.57;;;24.90;99.50;;;;;;5002938;28;20792;-61
2023/07/10 04:51:34;;;;;;;4.03;3.73;;;24.90;99.60;;;;;;4995380;28;20470;-61
2023/07/10 04:54:01;;;;;;;3.93;3.63;;;24.90;99.60;;;;;;5000978;28;20463;-58
2023/07/10 04:56:27;;;;;;;3.90;3.60;;;24.90;99.60;;;;;;5005405;28;20946;-57
2023/07/10 04:58:56;;;;;;;4.33;3.97;;;24.90;99.70;;;;;;4999657;28;20471;-53
2023/07/10 05:01:28;;;;;;;4.20;3.90;;;24.90;99.60;;;;;;4998766;28;20486;-55
2023/07/10 05:03:55;;;;;;;4.13;2.97;;;24.90;99.60;;;;;;4997224;28;21033;-55
2023/07/10 05:06:22;;;;;;;4.27;3.97;;;24.90;99.60;;;;;;4999711;28;20460;-57
2023/07/10 05:08:51;;;;;;;4.20;3.80;;;24.90;99.70;;;;;;5001339;28;20797;-59
2023/07/10 05:11:18;;;;;;;9.00;4.40;;;24.90;99.70;;;;;;4997281;28;20804;-59
2023/07/10 05:13:45;;;;;;;4.30;3.90;;;24.90;99.80;;;;;;4996414;28;20462;-62
2023/07/10 05:16:12;;;;;;;3.83;3.53;;;24.90;99.70;;;;;;4999355;28;20809;-59
2023/07/10 05:18:40;;;;;;;3.97;3.67;;;24.90;99.80;;;;;;5000303;28;20456;-61
2023/07/10 05:21:07;;;;;;;3.90;3.60;;;24.90;99.90;;;;;;4998163;28;20459;-60
2023/07/10 05:23:35;;;;;;;3.57;3.27;;;24.90;99.90;;;;;;5006430;28;20591;-60
2023/07/10 05:26:04;;;;;;;4.70;4.30;;;24.90;99.90;;;;;;5002230;28;20459;-57
2023/07/10 05:28:31;;;;;;;4.40;4.00;;;24.90;99.90;;;;;;5004286;28;20916;-58
2023/07/10 05:30:59;;;;;;;3.67;3.37;;;24.90;99.90;;;;;;4999989;28;20462;-59
2023/07/10 05:33:26;;;;;;;4.00;3.70;;;24.90;99.90;;;;;;5001796;28;20492;-60
2023/07/10 05:35:55;;;;;;;4.07;3.73;;;24.90;99.90;;;;;;5002615;28;20483;-61
2023/07/10 05:38:24;;;;;;;4.90;4.40;;;24.90;99.90;;;;;;4998145;28;20468;-60
2023/07/10 05:40:51;;;;;;;5.13;4.10;;;24.90;99.90;;;;;;4997812;28;20836;-58
2023/07/10 05:43:17;;;;;;;3.70;3.40;;;24.90;99.90;;;;;;4996596;28;20490;-55
2023/07/10 05:45:44;;;;;;;5.03;4.63;;;24.90;99.90;;;;;;5004053;28;20986;-61
2023/07/10 05:48:11;;;;;;;4.13;3.83;;;24.80;99.90;;;;;;5002900;28;20982;-59
2023/07/10 05:50:38;;;;;;;3.90;3.60;;;24.90;99.90;;;;;;5002111;28;20849;-59
2023/07/10 05:53:06;;;;;;;4.63;4.17;;;24.90;99.90;;;;;;5008520;28;21057;-60
2023/07/10 05:55:33;;;;;;;4.47;4.17;;;24.90;99.90;;;;;;5001111;28;20558;-54
2023/07/10 05:57:59;;;;;;;5.30;4.40;;;24.90;99.90;;;;;;4996215;28;20481;-56
2023/07/10 06:00:26;;;;;;;4.70;4.40;;;24.90;99.90;;;;;;5001127;28;20472;-61
2023/07/10 06:02:53;;;;;;;4.43;4.07;;;24.90;99.90;;;;;;5005252;28;20563;-59
2023/07/10 06:05:20;;;;;;;3.80;3.60;;;24.90;99.90;;;;;;5007191;28;20951;-60
2023/07/10 06:07:47;;;;;;;4.07;3.77;;;24.80;99.90;;;;;;5014228;28;20463;-61
2023/07/10 06:10:15;;;;;;;4.50;4.10;;;24.80;99.90;;;;;;5011784;28;20466;-60
2023/07/10 06:12:42;;;;;;;4.00;3.70;;;24.90;99.90;;;;;;5009435;28;20766;-64
2023/07/10 06:15:09;;;;;;;4.60;4.20;;;24.80;99.90;;;;;;5005700;28;20537;-63
2023/07/10 06:17:36;;;;;;;3.77;3.47;;;24.80;99.90;;;;;;5004735;28;20497;-59
2023/07/10 06:20:03;;;;;;;5.17;4.60;;;24.80;99.90;;;;;;4998126;28;20527;-63
2023/07/10 06:22:30;;;;;;;4.00;3.60;;;24.80;99.90;;;;;;5004459;28;20568;-63
2023/07/10 06:24:57;;;;;;;4.37;4.00;;;24.80;99.90;;;;;;4998074;28;20463;-63
2023/07/10 06:27:25;;;;;;;4.53;4.20;;;24.80;99.90;;;;;;4999435;28;20475;-56
2023/07/10 06:29:52;;;;;;;4.37;3.97;;;24.80;99.90;;;;;;4998946;28;20463;-64
2023/07/10 06:32:19;;;;;;;3.50;3.23;;;24.80;99.90;;;;;;4996852;28;20657;-61
2023/07/10 06:34:46;;;;;;;4.07;3.67;;;24.80;99.90;;;;;;5003152;28;20826;-64
2023/07/10 06:37:12;;;;;;;3.93;3.63;;;24.80;99.90;;;;;;5001150;28;20458;-59
2023/07/10 06:39:39;;;;;;;4.00;3.70;;;24.80;99.90;;;;;;4997250;28;20460;-56
2023/07/10 06:42:06;;;;;;;4.20;3.80;;;24.80;99.90;;;;;;4994655;28;20460;-55
2023/07/10 06:44:34;;;;;;;4.10;3.80;;;24.80;99.90;;;;;;4999290;28;20859;-58
2023/07/10 06:47:01;;;;;;;3.83;3.50;;;24.80;99.90;;;;;;4999533;28;21092;-64
2023/07/10 06:49:28;;;;;;;4.33;3.80;;;24.80;99.90;;;;;;4998112;28;20460;-62
2023/07/10 06:51:54;;;;;;;5.07;4.67;;;24.80;99.90;;;;;;5000301;28;20467;-60
2023/07/10 06:54:21;;;;;;;4.60;4.20;;;24.80;99.90;;;;;;4996808;28;20683;-59
2023/07/10 06:56:48;;;;;;;3.60;3.40;;;24.80;99.90;;;;;;4998154;28;20466;-50
2023/07/10 06:59:16;;;;;;;3.87;3.57;;;24.80;99.90;;;;;;5000423;28;20476;-62
2023/07/10 07:01:44;;;;;;;3.67;3.37;;;24.80;99.90;;;;;;4996179;28;20470;-56
2023/07/10 07:04:11;;;;;;;4.80;4.40;;;24.80;99.90;;;;;;5003817;28;20489;-64
2023/07/10 07:06:37;;;;;;;4.07;3.77;;;24.80;99.90;;;;;;5009363;28;20467;-62
2023/07/10 07:09:04;;;;;;;4.03;3.73;;;24.80;99.90;;;;;;5009099;28;20872;-60
2023/07/10 07:11:31;;;;;;;3.80;3.50;;;24.80;99.90;;;;;;5003245;28;20818;-58
2023/07/10 07:13:58;;;;;;;3.70;3.40;;;24.80;99.90;;;;;;5006154;28;20475;-57
2023/07/10 07:16:24;;;;;;;3.70;3.40;;;24.80;99.90;;;;;;5002487;28;20463;-65
2023/07/10 07:18:52;;;;;;;3.80;3.50;;;24.80;99.90;;;;;;5000029;28;20976;-61
2023/07/10 07:21:19;;;;;;;4.23;3.93;;;24.80;99.90;;;;;;5002660;28;20468;-61
2023/07/10 07:23:45;;;;;;;4.27;3.87;;;24.80;99.90;;;;;;5003265;28;20566;-62
2023/07/10 07:26:13;;;;;;;4.30;4.00;;;24.80;99.90;;;;;;5002955;28;20470;-65
2023/07/10 07:28:39;;;;;;;3.80;3.50;;;24.80;99.90;;;;;;5005118;28;20463;-57
2023/07/10 07:31:06;;;;;;;5.73;3.67;;;24.80;99.90;;;;;;5001366;28;20455;-62
2023/07/10 07:33:33;;;;;;;3.40;3.10;;;24.80;99.60;;;;;;5001848;28;20467;-62
2023/07/10 07:36:02;;;;;;;3.70;2.53;;;24.80;99.70;;;;;;5006333;28;20559;-60
2023/07/10 07:38:29;;;;;;;4.00;3.60;;;24.80;99.60;;;;;;5002856;28;20836;-58
2023/07/10 07:40:58;;;;;;;3.37;3.10;;;24.80;99.60;;;;;;5010595;28;20993;-64
2023/07/10 07:43:26;;;;;;;3.37;3.07;;;24.80;99.70;;;;;;5009211;28;20552;-64
2023/07/10 07:45:53;;;;;;;3.97;3.27;;;24.80;99.60;;;;;;5008211;28;20469;-63
2023/07/10 07:48:20;;;;;;;3.80;3.50;;;24.80;99.70;;;;;;5007323;28;20986;-53
2023/07/10 07:50:58;;;;;;;5.13;3.77;;;24.80;99.70;;;;;;5008291;28;20467;-61
2023/07/10 07:53:27;;;;;;;4.30;3.40;;;24.80;99.80;;;;;;5007209;28;20479;-61
2023/07/10 07:55:54;;;;;;;4.63;2.97;;;24.80;99.80;;;;;;5005068;28;20842;-60
2023/07/10 07:58:20;;;;;;;3.70;3.33;;;24.80;99.80;;;;;;5000830;28;20467;-56
2023/07/10 08:00:47;;;;;;;4.33;3.27;;;24.80;99.70;;;;;;5004949;28;21091;-57
2023/07/10 08:03:14;;;;;;;4.30;3.70;;;24.80;99.70;;;;;;5011424;28;20488;-64
2023/07/10 08:05:41;;;;;;;6.17;3.27;;;24.80;99.60;;;;;;5004021;28;20462;-57
2023/07/10 08:08:10;;;;;;;4.67;3.47;;;24.80;99.70;;;;;;5009802;28;20856;-60
2023/07/10 08:10:42;;;;;;;6.70;3.40;;;24.80;99.80;;;;;;5012046;28;20514;-56
2023/07/10 08:13:11;;;;;;;6.70;3.40;;;24.80;99.90;;;;;;5009280;28;20470;-63
2023/07/10 08:15:38;;;;;;;3.50;3.03;;;24.80;99.90;;;;;;5006590;28;20476;-59
2023/07/10 08:18:04;;;;;;;5.80;3.33;;;24.80;99.90;;;;;;5007157;28;20472;-57
2023/07/10 08:20:32;;;;;;;7.03;4.00;;;24.80;99.80;;;;;;5006652;28;20470;-61
2023/07/10 08:22:59;;;;;;;5.17;4.67;;;24.80;99.70;;;;;;5006374;28;20480;-58
2023/07/10 08:25:26;;;;;;;4.87;3.77;;;24.80;99.60;;;;;;5005878;28;20467;-63
2023/07/10 08:27:54;;;;;;;6.03;3.90;;;24.80;99.90;;;;;;5007001;28;20469;-62
2023/07/10 08:30:20;;;;;;;7.50;3.93;;;24.80;99.60;;;;;;5007218;28;20471;-56
2023/07/10 08:32:47;;;;;;;3.87;3.33;;;24.80;99.70;;;;;;5011371;28;20471;-56
2023/07/10 08:35:14;;;;;;;4.10;2.63;;;24.80;99.70;;;;;;5007819;28;20479;-62
2023/07/10 08:37:41;;;;;;;4.23;3.70;;;24.80;99.70;;;;;;5009019;28;20467;-61
2023/07/10 08:40:15;;;;;;;8.10;4.10;;;24.80;99.30;;;;;;5012591;28;21178;-63
2023/07/10 08:42:43;;;;;;;3.73;3.23;;;24.80;99.30;;;;;;5005901;28;20462;-60
2023/07/10 08:45:16;;;;;;;7.27;3.33;;;24.80;99.30;;;;;;5007833;28;20459;-57
2023/07/10 08:47:45;;;;;;;5.93;3.47;;;24.80;99.30;;;;;;5009979;28;20554;-61
2023/07/10 08:50:17;;;;;;;3.67;3.30;;;24.80;99.30;;;;;;5008916;28;20462;-63
2023/07/10 08:52:54;;;;;;;4.73;4.33;;;24.80;99.30;;;;;;5003922;28;20462;-63
2023/07/10 08:55:27;;;;;;;3.50;3.20;;;24.80;99.20;;;;;;5004911;28;20470;-63
2023/07/10 08:57:58;;;;;;;5.20;3.57;;;24.80;99.20;;;;;;5006074;28;20941;-60
2023/07/10 09:00:26;;;;;;;4.40;4.00;;;24.80;99.00;;;;;;5003099;28;20470;-63
2023/07/10 09:03:01;;;;;;;3.87;3.37;;;24.80;98.90;;;;;;5004779;28;20476;-60
2023/07/10 09:05:30;;;;;;;4.33;3.93;;;24.80;98.90;;;;;;5003091;28;20544;-64
2023/07/10 09:08:02;;;;;;;3.77;3.47;;;24.80;98.80;;;;;;5005632;28;21053;-64
2023/07/10 09:10:38;;;;;;;7.20;3.93;;;24.80;98.80;;;;;;5011611;28;20466;-60
2023/07/10 09:13:05;;;;;;;4.10;3.60;;;24.80;99.20;;;;;;5008971;28;20464;-59
2023/07/10 09:15:36;;;;;;;4.17;3.40;;;24.80;98.70;;;;;;5004342;28;20815;-58
2023/07/10 09:18:08;;;;;;;3.40;2.97;;;24.80;98.60;;;;;;5005990;28;20464;-62
2023/07/10 09:20:37;;;;;;;4.13;3.60;;;24.80;98.70;;;;;;5004504;28;20490;-60
2023/07/10 09:23:11;;;;;;;4.33;2.43;;;24.80;98.40;;;;;;5008782;28;20482;-59
2023/07/10 09:25:39;;;;;;;3.30;3.00;;;24.80;98.30;;;;;;5006616;28;20463;-60
2023/07/10 09:28:05;;;;;;;3.33;2.67;;;24.80;98.30;;;;;;4999487;28;20511;-61
2023/07/10 09:30:52;;;;;;;3.10;2.67;;;24.80;97.50;;;;;;5000616;28;20473;-57
2023/07/10 09:33:20;;;;;;;3.37;2.20;;;24.80;97.10;;;;;;5006987;28;20463;-61
2023/07/10 09:35:48;;;;;;;4.60;2.80;;;24.80;96.60;;;;;;4999970;28;20526;-60
2023/07/10 09:38:19;;;;;;;3.43;2.40;;;24.80;96.60;;;;;;5003430;28;20452;-60
2023/07/10 09:40:48;;;;;;;7.37;2.57;;;24.80;96.40;;;;;;5000976;28;20543;-61
2023/07/10 09:43:17;;;;;;;7.93;2.43;;;24.80;96.30;;;;;;5004695;28;20494;-61
2023/07/10 09:45:47;;;;;;;4.17;2.10;;;24.70;96.30;;;;;;5002900;28;20459;-64
2023/07/10 09:48:18;;;;;;;4.73;2.30;;;24.70;96.40;;;;;;5008653;28;20464;-59
2023/07/10 09:50:49;;;;;;;4.60;2.13;;;24.70;96.40;;;;;;5004772;28;20843;-61
2023/07/10 09:53:30;;;;;;;3.90;1.87;;;24.70;96.30;;;;;;5010987;28;20906;-63
2023/07/10 09:55:57;;;;;;;5.63;2.30;;;24.70;96.30;;;;;;5001566;28;21054;-56
2023/07/10 09:58:24;;;;;;;4.20;2.50;;;24.70;96.10;;;;;;4999106;28;20986;-61
2023/07/10 10:11:36;;;;;;;2.07;1.80;;;24.70;96.00;;;;;;4926915;28;20457;-56
2023/07/10 10:14:06;;;;;;;3.23;2.37;;;24.80;96.20;;;;;;4978107;28;20994;-53
2023/07/10 10:16:39;;;;;;;4.07;2.40;;;24.80;96.40;;;;;;5004845;28;20463;-59
2023/07/10 10:19:15;;;;;;;4.73;2.10;;;24.80;96.10;;;;;;5009132;28;20450;-60
2023/07/10 10:21:42;;;;;;;2.50;2.20;;;24.80;96.20;;;;;;5007048;28;20439;-58
2023/07/10 10:24:17;;;;;;;6.17;2.53;;;24.80;96.20;;;;;;5005257;28;20488;-60
2023/07/10 10:27:33;;;;;;;3.40;2.30;;;24.80;96.30;;;;;;5002867;28;20532;-64
2023/07/10 10:33:39;;;;;;;3.50;2.03;;;24.90;96.30;;;;;;4997751;28;20482;-63
2023/07/10 10:36:34;;;;;;;8.20;2.23;;;24.90;95.80;;;;;;5003334;28;20481;-65
2023/07/10 10:39:10;;;;;;;4.43;2.17;;;24.90;95.90;;;;;;5004695;28;20468;-58
2023/07/10 10:41:46;;;;;;;8.13;2.73;;;24.90;95.90;;;;;;5010368;28;20553;-58
2023/07/10 10:44:26;;;;;;;6.20;2.20;;;25.00;95.90;;;;;;5016037;28;20574;-58
2023/07/10 10:47:03;;;;;;;4.70;2.13;;;25.00;95.90;;;;;;5007729;28;20471;-58
2023/07/10 10:49:57;;;;;;;3.10;2.27;;;25.00;95.70;;;;;;5014412;28;20474;-59
2023/07/10 10:52:35;;;;;;;4.47;2.13;;;25.00;95.60;;;;;;5015641;28;20821;-57
2023/07/10 10:55:19;;;;;;;3.40;2.03;;;25.10;95.70;;;;;;5010267;28;20463;-59
2023/07/10 10:57:52;;;;;;;3.57;1.83;;;25.10;95.40;;;;;;5008775;28;20471;-58
2023/07/10 11:00:36;;;;;;;4.27;2.50;;;25.10;95.40;;;;;;5010381;28;20472;-57
2023/07/10 11:03:14;;;;;;;5.20;2.00;;;25.10;95.30;;;;;;5012558;28;20841;-57
2023/07/10 11:05:44;;;;;;;5.50;1.90;;;25.10;95.00;;;;;;5012089;28;21773;-58
2023/07/10 11:08:17;;;;;;;4.60;1.83;;;25.10;94.60;;;;;;5011915;28;20470;-58
2023/07/10 11:10:45;;;;;;;3.40;2.60;;;25.10;94.40;;;;;;5005867;28;20951;-58
2023/07/10 11:13:34;;;;;;;2.70;2.50;;;25.10;94.40;;;;;;5016078;28;20464;-58
2023/07/10 11:16:04;;;;;;;2.60;2.10;;;25.10;94.30;;;;;;5012369;28;21388;-58
2023/07/10 11:18:31;;;;;;;3.40;2.00;;;25.10;94.50;;;;;;5011837;28;20470;-58
2023/07/10 11:21:01;;;;;;;4.50;2.33;;;25.10;94.50;;;;;;5007809;28;20468;-59
2023/07/10 11:23:36;;;;;;;2.07;1.70;;;25.10;94.60;;;;;;5009975;28;20460;-58
2023/07/10 11:26:08;;;;;;;3.30;1.73;;;25.10;94.50;;;;;;5007892;28;20984;-57
2023/07/10 11:28:35;;;;;;;2.13;1.73;;;25.10;94.50;;;;;;5007429;28;20846;-57
2023/07/10 11:31:37;;;;;;;12.63;2.57;;;25.10;94.40;;;;;;5007912;28;20464;-58
2023/07/10 11:34:39;;;;;;;2.53;1.87;;;25.10;94.40;;;;;;4961208;28;20973;-57
2023/07/10 11:37:34;;;;;;;3.20;2.30;;;25.10;94.50;;;;;;5007892;28;20831;-58
2023/07/10 11:40:35;;;;;;;2.50;1.63;;;25.20;94.60;;;;;;5013355;28;20453;-58
2023/07/10 11:43:23;;;;;;;3.53;1.90;;;25.20;94.50;;;;;;5002256;28;20849;-58
2023/07/10 11:45:53;;;;;;;3.93;2.23;;;25.20;94.50;;;;;;5007333;28;20447;-58
2023/07/10 11:48:38;;;;;;;3.97;2.07;;;25.20;94.40;;;;;;5007744;28;20468;-58
2023/07/10 11:51:23;;;;;;;5.30;2.17;;;25.20;94.30;;;;;;5002986;28;20459;-60
2023/07/10 11:54:02;;;;;;;2.37;1.90;;;25.20;94.20;;;;;;5007930;28;20467;-57
2023/07/10 11:56:28;;;;;;;2.90;2.23;;;25.20;94.10;;;;;;5006706;28;21282;-58
2023/07/10 11:58:58;;;;;;;4.83;1.70;;;25.20;93.80;;;;;;5007471;28;20482;-57
2023/07/10 12:01:26;;;;;;;2.93;1.77;;;25.20;93.60;;;;;;5009240;28;20448;-58
2023/07/10 12:03:55;;;;;;;2.90;1.73;;;25.20;93.70;;;;;;5009928;28;20563;-58
2023/07/10 12:06:24;;;;;;;2.27;1.60;;;25.20;93.80;;;;;;5008930;28;20958;-59
2023/07/10 12:08:53;;;;;;;2.90;1.87;;;25.20;93.50;;;;;;5010668;28;20458;-60
2023/07/10 12:11:28;;;;;;;2.77;2.27;;;25.20;93.10;;;;;;5005375;28;20451;-61
2023/07/10 12:13:54;;;;;;;3.00;1.60;;;25.20;92.80;;;;;;5006333;28;20471;-60
2023/07/10 12:16:22;;;;;;;2.80;1.87;;;25.10;92.60;;;;;;5003531;28;20463;-57
2023/07/10 12:18:49;;;;;;;2.80;1.87;;;25.10;92.60;;;;;;5005043;28;21171;-60
2023/07/10 12:21:21;;;;;;;4.73;1.73;;;25.10;92.60;;;;;;5003424;28;20487;-58
2023/07/10 12:23:55;;;;;;;7.70;1.90;;;25.10;92.80;;;;;;5006440;28;20493;-60
2023/07/10 12:26:22;;;;;;;2.53;1.70;;;25.10;92.60;;;;;;5007173;28;20451;-61
2023/07/10 12:28:53;;;;;;;3.10;1.77;;;25.10;92.60;;;;;;5002701;28;20964;-60
2023/07/10 12:31:20;;;;;;;2.73;2.10;;;25.10;92.60;;;;;;5006162;28;20715;-59
2023/07/10 12:33:50;;;;;;;3.37;2.20;;;25.10;92.70;;;;;;5005230;28;20868;-60
2023/07/10 12:36:25;;;;;;;4.40;1.97;;;25.10;92.70;;;;;;5004294;28;20485;-59
2023/07/10 12:38:54;;;;;;;8.00;2.00;;;25.10;92.70;;;;;;4999856;28;20454;-59
2023/07/10 12:41:22;;;;;;;5.17;1.97;;;25.10;92.70;;;;;;5006468;28;20459;-60
2023/07/10 12:43:51;;;;;;;3.53;2.20;;;25.10;92.80;;;;;;5003837;28;20460;-59
2023/07/10 12:46:23;;;;;;;2.83;1.83;;;25.10;92.90;;;;;;5008432;28;20467;-60
2023/07/10 12:48:53;;;;;;;2.90;1.80;;;25.10;93.00;;;;;;5003029;28;20455;-59
2023/07/10 12:51:28;;;;;;;2.90;1.60;;;25.10;93.00;;;;;;5004914;28;20623;-59
2023/07/10 12:53:57;;;;;;;2.37;1.90;;;25.10;93.00;;;;;;5005097;28;20462;-59
2023/07/10 12:56:28;;;;;;;2.37;1.73;;;25.10;93.10;;;;;;5005385;28;20472;-59
2023/07/10 12:58:57;;;;;;;2.03;1.83;;;25.10;93.20;;;;;;5005046;28;20467;-60
2023/07/10 13:01:27;;;;;;;2.20;1.60;;;25.10;93.20;;;;;;5010296;28;21103;-60
2023/07/10 13:04:06;;;;;;;2.87;1.80;;;25.10;93.20;;;;;;5009194;28;20460;-59
2023/07/10 13:06:35;;;;;;;2.73;2.27;;;25.10;93.20;;;;;;5009351;28;20464;-59
2023/07/10 13:09:04;;;;;;;1.93;1.70;;;25.10;93.30;;;;;;5007844;28;20872;-59
2023/07/10 13:11:31;;;;;;;4.17;1.73;;;25.10;93.30;;;;;;5008073;28;20467;-59
2023/07/10 13:14:04;;;;;;;2.97;1.53;;;25.10;93.30;;;;;;5011688;28;20826;-59
2023/07/10 13:16:31;;;;;;;2.77;1.63;;;25.10;93.30;;;;;;5006810;28;20555;-60